Time;durP1;ratioP1;P1;durP2;ratioP2;P2;SDS_P1;SDS_P2;PMS_P1;PMS_P2;Temp;Humidity;BMP_temperature;BMP_pressure;BME280_temperature;BME280_humidity;BME280_pressure;Samples;Min_cycle;Max_cycle;Signal;HPM_P1;HPM_P2
2021/09/22 00:01:28;;;;;;;8.25;4.05;;;13.70;70.30;;;;;;2249556;56;20930;-71
2021/09/22 00:03:54;;;;;;;6.78;3.75;;;13.70;70.40;;;;;;2294661;55;21491;-72
2021/09/22 00:06:20;;;;;;;4.87;3.37;;;13.70;70.50;;;;;;2491218;55;21820;-72
2021/09/22 00:08:46;;;;;;;5.28;3.47;;;13.70;70.60;;;;;;2495384;55;20960;-71
2021/09/22 00:11:13;;;;;;;7.03;4.60;;;13.70;70.70;;;;;;2258942;55;20983;-73
2021/09/22 00:13:39;;;;;;;5.22;3.45;;;13.60;70.70;;;;;;2266650;55;21654;-71
2021/09/22 00:16:05;;;;;;;5.45;3.67;;;13.60;70.80;;;;;;2269510;55;20994;-78
2021/09/22 00:18:32;;;;;;;4.37;3.22;;;13.60;70.80;;;;;;2500221;55;21982;-75
2021/09/22 00:20:58;;;;;;;5.30;3.92;;;13.60;70.80;;;;;;2497642;55;21380;-73
2021/09/22 00:23:24;;;;;;;6.25;4.28;;;13.60;70.90;;;;;;2269325;55;21396;-77
2021/09/22 00:25:51;;;;;;;6.28;4.00;;;13.50;71.50;;;;;;2258936;55;20990;-75
2021/09/22 00:28:17;;;;;;;6.00;4.22;;;13.50;70.80;;;;;;2263786;56;20970;-75
2021/09/22 00:30:44;;;;;;;6.15;4.10;;;13.50;70.90;;;;;;2262295;56;20969;-76
2021/09/22 00:33:10;;;;;;;5.15;3.55;;;13.50;70.90;;;;;;2268047;56;21553;-74
2021/09/22 00:35:36;;;;;;;5.97;3.95;;;13.50;71.00;;;;;;2272220;55;20951;-79
2021/09/22 00:38:03;;;;;;;5.72;4.07;;;13.50;71.00;;;;;;2252582;55;21066;-73
2021/09/22 00:40:29;;;;;;;6.40;3.10;;;13.50;71.00;;;;;;2492292;55;20939;-74
2021/09/22 00:42:56;;;;;;;5.18;3.60;;;13.40;70.90;;;;;;2267705;55;20960;-73
2021/09/22 00:45:22;;;;;;;7.45;4.22;;;13.50;71.00;;;;;;2271559;55;20927;-73
2021/09/22 00:47:48;;;;;;;5.62;4.07;;;13.40;70.80;;;;;;2258260;56;20966;-77
2021/09/22 00:50:14;;;;;;;6.57;4.40;;;13.40;70.90;;;;;;2496638;55;20958;-71
2021/09/22 00:52:41;;;;;;;5.12;3.62;;;13.40;70.90;;;;;;2499659;55;20962;-71
2021/09/22 00:55:08;;;;;;;5.70;3.87;;;13.40;70.80;;;;;;2268051;55;21317;-71
2021/09/22 00:57:46;;;;;;;8.07;4.47;;;13.30;70.60;;;;;;2324411;55;21018;-78
2021/09/22 01:00:13;;;;;;;5.75;4.30;;;13.30;70.40;;;;;;2268859;56;20934;-72
2021/09/22 01:02:39;;;;;;;6.65;4.37;;;13.30;70.70;;;;;;2266199;55;22021;-74
2021/09/22 01:05:06;;;;;;;9.43;4.45;;;13.20;70.60;;;;;;2265563;55;20954;-76
2021/09/22 01:07:32;;;;;;;6.00;3.80;;;13.20;70.70;;;;;;2268383;56;20966;-71
2021/09/22 01:09:58;;;;;;;5.53;3.90;;;13.20;70.70;;;;;;2268354;55;20986;-77
2021/09/22 01:12:25;;;;;;;6.15;4.32;;;13.20;70.80;;;;;;2262876;55;20962;-75
2021/09/22 01:14:52;;;;;;;8.20;4.55;;;13.20;70.90;;;;;;2263836;55;21026;-72
2021/09/22 01:17:19;;;;;;;6.72;4.18;;;13.20;71.00;;;;;;2306486;55;20950;-76
2021/09/22 01:19:48;;;;;;;5.20;3.75;;;13.10;71.00;;;;;;2265190;55;20953;-75
2021/09/22 01:22:24;;;;;;;5.40;3.55;;;13.10;71.00;;;;;;2268631;55;20981;-77
2021/09/22 01:24:50;;;;;;;5.80;4.18;;;13.10;70.90;;;;;;2465201;55;21113;-73
2021/09/22 01:27:16;;;;;;;7.35;4.62;;;13.10;71.10;;;;;;2414616;55;20921;-77
2021/09/22 01:29:45;;;;;;;6.00;3.33;;;13.10;71.10;;;;;;2271112;56;25172;-73
2021/09/22 01:32:12;;;;;;;5.40;3.75;;;13.10;71.10;;;;;;2262472;55;20995;-75
2021/09/22 01:34:38;;;;;;;5.82;4.05;;;13.10;71.10;;;;;;2270558;55;20985;-77
2021/09/22 01:37:05;;;;;;;5.80;4.05;;;13.00;70.80;;;;;;2491713;55;20942;-71
2021/09/22 01:39:38;;;;;;;5.25;3.80;;;13.00;70.70;;;;;;2268392;56;20953;-76
2021/09/22 01:42:05;;;;;;;5.85;3.78;;;13.00;70.40;;;;;;2435386;55;21029;-75
2021/09/22 01:44:35;;;;;;;5.37;3.72;;;13.00;70.60;;;;;;2268318;55;20974;-73
2021/09/22 01:47:01;;;;;;;5.03;3.58;;;12.90;70.50;;;;;;2268275;56;20942;-77
2021/09/22 01:49:27;;;;;;;6.12;3.92;;;12.90;70.70;;;;;;2267624;55;22045;-69
2021/09/22 01:52:01;;;;;;;8.77;4.25;;;12.90;70.80;;;;;;2491855;55;20971;-75
2021/09/22 01:54:27;;;;;;;6.72;4.35;;;12.90;70.70;;;;;;2276273;55;21428;-73
2021/09/22 01:56:53;;;;;;;4.62;3.33;;;12.80;70.80;;;;;;2262690;55;20990;-76
2021/09/22 01:59:19;;;;;;;4.85;3.17;;;12.80;70.80;;;;;;2257099;55;20941;-72
2021/09/22 02:01:46;;;;;;;6.05;3.62;;;12.80;71.00;;;;;;2261488;55;21337;-74
2021/09/22 02:04:12;;;;;;;6.25;3.40;;;12.70;70.90;;;;;;2280040;55;21074;-73
2021/09/22 02:06:39;;;;;;;4.60;3.00;;;12.80;71.00;;;;;;2259919;55;21391;-72
2021/09/22 02:09:05;;;;;;;6.05;3.55;;;12.70;70.80;;;;;;2261175;56;21957;-73
2021/09/22 02:11:34;;;;;;;6.47;3.65;;;12.70;70.90;;;;;;2437090;55;20954;-70
2021/09/22 02:14:00;;;;;;;5.40;3.62;;;12.70;70.70;;;;;;2267102;55;21338;-70
2021/09/22 02:16:27;;;;;;;5.85;4.18;;;12.70;70.70;;;;;;2269151;56;20970;-73
2021/09/22 02:18:53;;;;;;;6.03;3.92;;;12.70;70.70;;;;;;2266393;55;21293;-74
2021/09/22 02:21:19;;;;;;;7.87;4.22;;;12.60;70.70;;;;;;2266660;55;21434;-75
2021/09/22 02:23:45;;;;;;;5.82;3.62;;;12.60;70.80;;;;;;2263783;55;21082;-74
2021/09/22 02:26:12;;;;;;;5.45;3.62;;;12.60;70.90;;;;;;2272219;55;20978;-71
2021/09/22 02:28:38;;;;;;;5.68;3.83;;;12.60;71.00;;;;;;2260628;55;21019;-78
2021/09/22 02:31:05;;;;;;;5.78;3.47;;;12.60;71.00;;;;;;2262713;55;20974;-74
2021/09/22 02:33:31;;;;;;;6.28;4.65;;;12.60;71.10;;;;;;2268895;56;20941;-73
2021/09/22 02:35:57;;;;;;;6.30;4.00;;;12.60;71.10;;;;;;2463911;55;20994;-72
2021/09/22 02:38:24;;;;;;;5.40;3.92;;;12.60;71.10;;;;;;2261794;55;20958;-74
2021/09/22 02:40:50;;;;;;;5.60;4.15;;;12.50;71.00;;;;;;2497904;55;20974;-71
2021/09/22 02:43:16;;;;;;;6.32;3.97;;;12.50;71.00;;;;;;2261101;55;21017;-78
2021/09/22 02:45:42;;;;;;;5.37;3.60;;;12.50;71.00;;;;;;2267251;55;21082;-74
2021/09/22 02:48:09;;;;;;;6.57;3.20;;;12.50;71.10;;;;;;2250764;55;21006;-70
2021/09/22 02:50:35;;;;;;;4.97;3.47;;;12.50;71.10;;;;;;2352479;55;20973;-75
2021/09/22 02:53:01;;;;;;;5.32;3.17;;;12.50;71.10;;;;;;2288402;56;21007;-72
2021/09/22 02:55:27;;;;;;;5.55;3.80;;;12.50;71.10;;;;;;2495061;55;21977;-73
2021/09/22 02:57:54;;;;;;;5.85;3.72;;;12.50;71.10;;;;;;2268208;56;21009;-72
2021/09/22 03:00:20;;;;;;;5.32;3.75;;;12.40;70.80;;;;;;2268613;55;20966;-74
2021/09/22 03:02:46;;;;;;;5.68;3.40;;;12.40;70.80;;;;;;2267836;56;20958;-74
2021/09/22 03:05:12;;;;;;;4.78;3.25;;;12.40;70.80;;;;;;2268584;56;21282;-73
2021/09/22 03:07:41;;;;;;;5.10;3.92;;;12.40;70.70;;;;;;2268400;55;21005;-73
2021/09/22 03:10:08;;;;;;;6.10;4.28;;;12.30;70.70;;;;;;2268056;55;21082;-74
2021/09/22 03:12:34;;;;;;;7.87;4.12;;;12.30;70.70;;;;;;2264466;55;21076;-72
2021/09/22 03:15:01;;;;;;;5.20;3.75;;;12.30;70.70;;;;;;2266701;55;21078;-75
2021/09/22 03:17:27;;;;;;;5.70;3.75;;;12.30;70.80;;;;;;2266097;55;20990;-72
2021/09/22 03:19:53;;;;;;;5.60;3.62;;;12.30;70.90;;;;;;2279633;55;20943;-72
2021/09/22 03:22:21;;;;;;;5.05;3.10;;;12.20;70.80;;;;;;2257439;56;20991;-73
2021/09/22 03:24:47;;;;;;;5.70;4.05;;;12.20;70.80;;;;;;2267899;56;21513;-72
2021/09/22 03:27:13;;;;;;;5.80;3.87;;;12.20;70.80;;;;;;2268301;55;20969;-74
2021/09/22 03:29:39;;;;;;;6.80;4.22;;;12.20;70.90;;;;;;2267266;55;21114;-68
2021/09/22 03:32:06;;;;;;;7.12;4.22;;;12.20;71.00;;;;;;2315742;55;20947;-75
2021/09/22 03:34:32;;;;;;;5.68;3.87;;;12.20;71.00;;;;;;2254546;55;21020;-77
2021/09/22 03:36:58;;;;;;;6.25;3.97;;;12.20;70.90;;;;;;2268402;56;20934;-73
2021/09/22 03:39:25;;;;;;;5.43;3.95;;;12.10;70.80;;;;;;2382267;55;21527;-77
2021/09/22 03:41:51;;;;;;;5.93;4.03;;;12.10;70.80;;;;;;2268107;55;21050;-71
2021/09/22 03:44:17;;;;;;;5.62;3.75;;;12.10;70.80;;;;;;2419368;55;21029;-70
2021/09/22 03:46:44;;;;;;;6.60;4.60;;;12.10;70.80;;;;;;2265262;55;20946;-70
2021/09/22 03:49:10;;;;;;;6.28;4.22;;;12.10;70.80;;;;;;2261417;55;20978;-71
2021/09/22 03:51:36;;;;;;;7.12;4.22;;;12.10;70.80;;;;;;2269384;55;21133;-71
2021/09/22 03:54:03;;;;;;;5.85;4.37;;;12.00;70.80;;;;;;2254714;55;21263;-70
2021/09/22 03:56:29;;;;;;;7.00;4.03;;;12.00;70.80;;;;;;2269241;55;21588;-74
2021/09/22 03:58:56;;;;;;;6.32;4.05;;;12.00;70.80;;;;;;2254903;55;20958;-72
2021/09/22 04:01:23;;;;;;;6.10;4.45;;;12.00;71.00;;;;;;2268494;55;20949;-72
2021/09/22 04:03:49;;;;;;;5.82;3.92;;;12.00;71.00;;;;;;2500405;55;20958;-71
2021/09/22 04:06:15;;;;;;;7.12;4.75;;;12.00;71.00;;;;;;2268286;55;20942;-71
2021/09/22 04:08:41;;;;;;;5.12;3.62;;;11.90;70.90;;;;;;2265808;55;21242;-76
2021/09/22 04:11:09;;;;;;;6.45;4.57;;;11.90;70.90;;;;;;2266830;55;20979;-73
2021/09/22 04:13:38;;;;;;;5.53;4.20;;;11.90;71.00;;;;;;2493995;55;20954;-75
2021/09/22 04:16:06;;;;;;;6.20;4.00;;;11.90;71.00;;;;;;2243435;55;21014;-70
2021/09/22 04:18:44;;;;;;;5.75;3.90;;;11.90;71.00;;;;;;2473011;55;21017;-73
2021/09/22 04:21:11;;;;;;;6.28;4.28;;;11.90;70.80;;;;;;2268595;55;20958;-74
2021/09/22 04:23:37;;;;;;;6.15;4.43;;;11.90;71.70;;;;;;2494507;55;20982;-73
2021/09/22 04:26:03;;;;;;;6.85;4.68;;;11.90;71.00;;;;;;2267674;55;21049;-73
2021/09/22 04:28:30;;;;;;;7.05;4.47;;;11.80;71.00;;;;;;2266678;55;21021;-72
2021/09/22 04:30:59;;;;;;;6.40;4.55;;;11.80;70.90;;;;;;2267177;55;21538;-74
2021/09/22 04:33:25;;;;;;;7.25;4.62;;;11.80;70.80;;;;;;2254102;56;22119;-77
2021/09/22 04:35:53;;;;;;;6.75;3.87;;;11.80;70.80;;;;;;2269669;55;20993;-70
2021/09/22 04:38:19;;;;;;;5.82;3.70;;;11.80;70.80;;;;;;2247175;55;21543;-76
2021/09/22 04:40:45;;;;;;;6.70;4.43;;;11.80;70.80;;;;;;2442265;55;21030;-70
2021/09/22 04:43:12;;;;;;;6.10;3.62;;;11.80;70.90;;;;;;2312959;55;20975;-73
2021/09/22 04:45:38;;;;;;;5.85;4.20;;;11.70;70.80;;;;;;2259422;55;20985;-70
2021/09/22 04:48:06;;;;;;;5.18;3.35;;;11.70;70.80;;;;;;2415515;55;21071;-71
2021/09/22 04:50:32;;;;;;;5.70;3.78;;;11.70;70.70;;;;;;2264169;55;21000;-70
2021/09/22 04:52:59;;;;;;;6.20;4.12;;;11.70;70.80;;;;;;2253893;55;21028;-70
2021/09/22 04:55:25;;;;;;;6.10;4.35;;;11.70;70.80;;;;;;2260075;56;20951;-70
2021/09/22 04:57:52;;;;;;;6.25;4.20;;;11.70;70.80;;;;;;2260237;56;21046;-71
2021/09/22 05:00:18;;;;;;;7.87;4.07;;;11.60;70.80;;;;;;2259963;55;20987;-71
2021/09/22 05:02:45;;;;;;;5.87;4.28;;;11.60;70.80;;;;;;2260234;56;20967;-69
2021/09/22 05:05:12;;;;;;;5.20;3.42;;;11.70;70.90;;;;;;2285294;55;20964;-69
2021/09/22 05:07:40;;;;;;;5.72;3.97;;;11.60;70.90;;;;;;2255660;55;20958;-75
2021/09/22 05:10:07;;;;;;;4.60;3.30;;;11.60;71.00;;;;;;2258431;55;21069;-72
2021/09/22 05:12:34;;;;;;;7.05;4.95;;;11.60;71.00;;;;;;2256791;55;20944;-75
2021/09/22 05:15:01;;;;;;;5.68;3.83;;;11.60;71.10;;;;;;2259335;56;20936;-71
2021/09/22 05:17:27;;;;;;;5.22;3.40;;;11.60;71.20;;;;;;2290881;55;21046;-74
2021/09/22 05:19:53;;;;;;;6.35;4.18;;;11.60;71.20;;;;;;2256142;55;20985;-71
2021/09/22 05:22:20;;;;;;;8.63;4.70;;;11.50;71.20;;;;;;2257614;56;20987;-73
2021/09/22 05:24:46;;;;;;;6.90;4.75;;;11.60;71.30;;;;;;2483814;55;21026;-70
2021/09/22 05:27:15;;;;;;;6.32;4.28;;;11.60;71.40;;;;;;2256598;55;21433;-70
2021/09/22 05:29:42;;;;;;;6.15;4.20;;;11.60;71.40;;;;;;2255368;55;21026;-75
2021/09/22 05:32:08;;;;;;;6.10;4.45;;;11.50;71.30;;;;;;2260350;56;20947;-69
2021/09/22 05:34:34;;;;;;;7.15;4.35;;;11.60;72.10;;;;;;2381017;55;21548;-75
2021/09/22 05:37:01;;;;;;;5.85;4.05;;;11.50;71.30;;;;;;2261306;55;21789;-71
2021/09/22 05:39:27;;;;;;;5.95;4.05;;;11.60;71.40;;;;;;2255346;55;20998;-71
2021/09/22 05:41:53;;;;;;;8.27;4.28;;;11.50;71.20;;;;;;2431646;55;20924;-71
2021/09/22 05:44:19;;;;;;;5.70;3.85;;;11.50;71.20;;;;;;2256838;55;20999;-70
2021/09/22 05:46:46;;;;;;;7.62;4.68;;;11.50;71.20;;;;;;2255834;55;20963;-74
2021/09/22 05:49:12;;;;;;;7.50;4.22;;;11.50;71.30;;;;;;2283245;55;22147;-72
2021/09/22 05:51:38;;;;;;;6.53;3.92;;;11.50;71.40;;;;;;2258632;55;21031;-74
2021/09/22 05:54:04;;;;;;;6.22;4.18;;;11.50;71.40;;;;;;2258745;56;21030;-73
2021/09/22 05:56:31;;;;;;;7.25;4.72;;;11.50;71.50;;;;;;2261930;55;21113;-73
2021/09/22 05:58:57;;;;;;;6.53;4.47;;;11.50;71.50;;;;;;2258130;55;20985;-69
2021/09/22 06:01:23;;;;;;;7.07;4.40;;;11.50;71.70;;;;;;2226113;56;21651;-73
2021/09/22 06:03:50;;;;;;;7.45;4.53;;;11.50;71.90;;;;;;2247105;55;21002;-71
2021/09/22 06:06:17;;;;;;;6.82;4.72;;;11.60;72.10;;;;;;2258552;56;21419;-68
2021/09/22 06:08:47;;;;;;;5.87;4.25;;;11.60;72.10;;;;;;2259055;56;21437;-73
2021/09/22 06:11:13;;;;;;;6.80;4.65;;;11.60;72.00;;;;;;2258706;56;20990;-70
2021/09/22 06:13:39;;;;;;;6.75;4.07;;;11.60;72.10;;;;;;2250788;55;20975;-73
2021/09/22 06:16:06;;;;;;;5.97;4.43;;;11.60;72.10;;;;;;2258396;56;20942;-74
2021/09/22 06:18:35;;;;;;;6.35;4.30;;;11.60;72.20;;;;;;2357586;55;20962;-72
2021/09/22 06:21:01;;;;;;;6.72;4.18;;;11.70;72.60;;;;;;2251792;55;20943;-70
2021/09/22 06:23:28;;;;;;;6.85;4.32;;;11.70;73.10;;;;;;2258613;55;21046;-76
2021/09/22 06:25:55;;;;;;;6.78;4.70;;;11.80;73.10;;;;;;2258922;56;20978;-74
2021/09/22 06:28:21;;;;;;;6.43;4.35;;;11.80;73.10;;;;;;2259054;56;20946;-70
2021/09/22 06:31:06;;;;;;;7.32;5.03;;;11.90;73.10;;;;;;2250117;55;21121;-74
2021/09/22 06:33:32;;;;;;;8.30;5.30;;;11.90;72.80;;;;;;2259392;56;22090;-72
2021/09/22 06:36:01;;;;;;;6.80;5.05;;;12.00;73.30;;;;;;2369880;55;21838;-74
2021/09/22 06:38:28;;;;;;;9.10;6.50;;;12.00;73.40;;;;;;2234343;55;21088;-73
2021/09/22 06:40:54;;;;;;;9.50;7.18;;;12.10;73.50;;;;;;2301733;55;21013;-69
2021/09/22 06:43:21;;;;;;;10.70;7.07;;;12.10;73.60;;;;;;2245875;56;20952;-72
2021/09/22 06:45:47;;;;;;;9.82;6.93;;;12.20;73.70;;;;;;2255314;55;22202;-72
2021/09/22 06:48:13;;;;;;;9.85;6.35;;;12.20;73.80;;;;;;2323159;55;21636;-74
2021/09/22 06:50:39;;;;;;;8.23;5.55;;;12.30;74.00;;;;;;2259906;56;21047;-70
2021/09/22 06:53:06;;;;;;;8.15;5.90;;;12.30;74.10;;;;;;2255859;55;21114;-71
2021/09/22 06:55:33;;;;;;;8.60;5.90;;;12.30;74.20;;;;;;2484371;55;20959;-70
2021/09/22 06:58:00;;;;;;;7.82;5.43;;;12.50;74.40;;;;;;2259247;56;21007;-70
2021/09/22 07:00:26;;;;;;;7.37;5.30;;;12.50;74.40;;;;;;2255977;55;20979;-71
2021/09/22 07:02:52;;;;;;;8.40;5.93;;;12.60;74.40;;;;;;2383977;55;20955;-70
2021/09/22 07:05:19;;;;;;;8.20;5.68;;;12.60;74.40;;;;;;2378502;55;21316;-71
2021/09/22 07:07:48;;;;;;;9.30;6.10;;;12.70;74.50;;;;;;2254505;55;20938;-69
2021/09/22 07:10:15;;;;;;;9.20;6.10;;;12.80;74.50;;;;;;2254079;55;21002;-75
2021/09/22 07:12:41;;;;;;;8.00;5.80;;;12.80;74.50;;;;;;2253743;55;20938;-68
2021/09/22 07:15:08;;;;;;;10.30;6.43;;;12.90;74.70;;;;;;2250682;55;21086;-73
2021/09/22 07:17:34;;;;;;;8.65;6.03;;;13.00;74.80;;;;;;2256384;55;21131;-68
2021/09/22 07:20:01;;;;;;;8.25;6.20;;;13.00;74.80;;;;;;2254148;56;21097;-73
2021/09/22 07:22:28;;;;;;;8.23;5.87;;;13.10;74.90;;;;;;2252393;55;21035;-76
2021/09/22 07:24:54;;;;;;;9.40;6.75;;;13.20;75.70;;;;;;2251490;55;21578;-75
2021/09/22 07:27:20;;;;;;;9.43;6.93;;;13.30;75.10;;;;;;2250889;55;21483;-69
2021/09/22 07:29:46;;;;;;;9.45;6.07;;;13.30;75.10;;;;;;2274761;55;21019;-71
2021/09/22 07:32:13;;;;;;;8.57;6.18;;;13.40;75.10;;;;;;2248548;55;20961;-73
2021/09/22 07:34:42;;;;;;;9.98;7.00;;;13.50;75.20;;;;;;2243003;56;20991;-72
2021/09/22 07:37:12;;;;;;;11.40;7.87;;;13.60;75.30;;;;;;2445388;55;21093;-69
2021/09/22 07:39:39;;;;;;;11.30;7.97;;;13.60;75.40;;;;;;2441459;55;20995;-71
2021/09/22 07:42:05;;;;;;;11.00;7.45;;;13.70;75.30;;;;;;2236398;56;20953;-70
2021/09/22 07:44:31;;;;;;;10.95;7.97;;;13.80;75.40;;;;;;2242659;55;20975;-71
2021/09/22 07:47:03;;;;;;;12.98;7.60;;;13.90;75.50;;;;;;2250767;55;21003;-70
2021/09/22 07:49:30;;;;;;;10.50;7.62;;;13.90;75.40;;;;;;2232646;55;20961;-70
2021/09/22 07:51:56;;;;;;;12.60;7.97;;;14.00;75.60;;;;;;2252281;55;21019;-71
2021/09/22 07:54:22;;;;;;;11.02;7.50;;;14.10;75.60;;;;;;2253888;55;21102;-71
2021/09/22 07:56:49;;;;;;;11.40;7.90;;;14.20;75.60;;;;;;2260723;55;20991;-71
2021/09/22 07:59:16;;;;;;;9.73;7.35;;;14.30;75.60;;;;;;2414575;55;20970;-74
2021/09/22 08:01:42;;;;;;;11.07;7.35;;;14.30;75.70;;;;;;2456757;55;21026;-71
2021/09/22 08:04:08;;;;;;;9.80;7.07;;;14.40;75.80;;;;;;2249199;56;21046;-77
2021/09/22 08:06:35;;;;;;;12.82;7.20;;;14.50;75.90;;;;;;2259183;56;20958;-71
2021/09/22 08:09:01;;;;;;;11.68;8.10;;;14.60;75.90;;;;;;2260016;56;21015;-75
2021/09/22 08:11:27;;;;;;;11.88;8.68;;;14.70;76.00;;;;;;2251268;56;21354;-70
2021/09/22 08:13:53;;;;;;;10.38;7.78;;;14.70;76.00;;;;;;2474515;55;20986;-70
2021/09/22 08:16:20;;;;;;;10.35;7.10;;;14.80;76.00;;;;;;2250490;55;21059;-71
2021/09/22 08:18:46;;;;;;;13.07;8.20;;;14.90;76.00;;;;;;2365658;55;21014;-71
2021/09/22 08:21:15;;;;;;;10.55;7.55;;;15.00;76.10;;;;;;2400566;55;21054;-71
2021/09/22 08:23:41;;;;;;;9.70;6.70;;;15.10;76.00;;;;;;2314678;55;20974;-72
2021/09/22 08:26:08;;;;;;;12.32;7.10;;;15.20;76.30;;;;;;2238798;56;20982;-71
2021/09/22 08:28:34;;;;;;;12.25;8.35;;;15.30;77.20;;;;;;2262695;56;20953;-78
2021/09/22 08:31:00;;;;;;;10.90;8.13;;;15.40;76.60;;;;;;2249864;55;21011;-71
2021/09/22 08:33:27;;;;;;;11.30;7.80;;;15.50;76.80;;;;;;2249011;55;21057;-71
2021/09/22 08:35:53;;;;;;;9.45;6.43;;;15.60;76.90;;;;;;2266548;56;20955;-73
2021/09/22 08:38:19;;;;;;;9.00;6.62;;;15.70;77.00;;;;;;2238698;56;20963;-73
2021/09/22 08:40:45;;;;;;;9.05;6.80;;;15.80;77.10;;;;;;2254419;55;21006;-74
2021/09/22 08:43:12;;;;;;;9.30;6.60;;;15.90;76.90;;;;;;2239394;55;21017;-71
2021/09/22 08:45:39;;;;;;;9.05;6.55;;;16.00;76.80;;;;;;2454455;55;21481;-74
2021/09/22 08:48:07;;;;;;;9.50;6.62;;;16.10;76.40;;;;;;2256394;55;21720;-70
2021/09/22 08:50:34;;;;;;;8.25;6.18;;;16.20;76.40;;;;;;2303305;55;20986;-71
2021/09/22 08:53:04;;;;;;;10.00;6.80;;;16.30;76.30;;;;;;2251122;55;20947;-71
2021/09/22 08:55:30;;;;;;;9.05;6.20;;;16.40;76.30;;;;;;2234515;56;20944;-70
2021/09/22 08:57:56;;;;;;;8.77;6.93;;;16.40;76.20;;;;;;2257330;56;20939;-71
2021/09/22 09:00:23;;;;;;;9.13;7.15;;;16.50;76.30;;;;;;2415774;55;21329;-71
2021/09/22 09:02:50;;;;;;;8.40;6.12;;;16.60;76.40;;;;;;2262511;56;20978;-71
2021/09/22 09:05:18;;;;;;;9.05;6.87;;;16.70;76.30;;;;;;2249673;55;20990;-71
2021/09/22 09:07:56;;;;;;;9.02;7.05;;;16.80;76.10;;;;;;2259944;56;21013;-70
2021/09/22 09:10:27;;;;;;;8.68;6.40;;;16.80;75.10;;;;;;2246920;55;21049;-74
2021/09/22 09:13:09;;;;;;;9.00;7.07;;;16.90;75.60;;;;;;2262398;55;21058;-71
2021/09/22 09:15:45;;;;;;;8.35;6.00;;;17.00;74.80;;;;;;2267495;56;21086;-76
2021/09/22 09:18:17;;;;;;;9.05;6.07;;;17.00;75.10;;;;;;2387860;55;22058;-71
2021/09/22 09:20:47;;;;;;;;;;;17.10;75.60;;;;;;2263524;56;20966;-71
2021/09/22 09:23:16;;;;;;;10.63;6.15;;;17.10;74.40;;;;;;2259419;56;20120;-71
2021/09/22 09:26:04;;;;;;;8.23;6.28;;;17.20;75.70;;;;;;2259638;56;22076;-72
2021/09/22 09:28:35;;;;;;;10.90;7.45;;;17.30;74.60;;;;;;2259364;56;21081;-71
2021/09/22 09:31:06;;;;;;;9.10;6.65;;;17.40;75.60;;;;;;2259828;56;21480;-70
2021/09/22 09:33:43;;;;;;;8.73;6.78;;;17.40;75.60;;;;;;2256814;55;21593;-74
2021/09/22 09:36:23;;;;;;;7.25;5.85;;;17.50;75.70;;;;;;2254414;56;20998;-71
2021/09/22 09:38:55;;;;;;;8.85;6.95;;;17.60;75.20;;;;;;2258653;55;21129;-71
2021/09/22 09:41:51;;;;;;;8.77;6.10;;;17.70;75.80;;;;;;2252648;55;21670;-72
2021/09/22 09:44:32;;;;;;;9.52;6.78;;;17.70;75.40;;;;;;2335859;55;20994;-73
2021/09/22 09:47:08;;;;;;;9.32;6.55;;;17.90;75.40;;;;;;2252011;55;20970;-71
2021/09/22 09:49:37;;;;;;;7.95;6.03;;;18.00;75.90;;;;;;2251047;55;21526;-72
2021/09/22 09:52:03;;;;;;;8.75;6.97;;;18.10;76.80;;;;;;2260032;56;21002;-71
2021/09/22 09:54:32;;;;;;;10.55;8.15;;;18.20;77.00;;;;;;2259489;56;22204;-78
2021/09/22 09:57:15;;;;;;;10.88;7.62;;;18.30;76.90;;;;;;2259460;56;20962;-72
2021/09/22 09:59:45;;;;;;;9.18;7.10;;;18.40;75.60;;;;;;2261240;55;21051;-72
2021/09/22 10:02:28;;;;;;;10.20;7.25;;;18.60;76.50;;;;;;2431549;55;20958;-74
2021/09/22 10:04:56;;;;;;;10.25;8.25;;;18.70;75.30;;;;;;2356520;55;20983;-71
2021/09/22 10:07:22;;;;;;;11.10;7.87;;;18.70;76.20;;;;;;2256676;55;20958;-71
2021/09/22 10:09:50;;;;;;;8.55;6.72;;;18.80;75.90;;;;;;2235718;56;21031;-74
2021/09/22 10:12:17;;;;;;;7.85;6.47;;;18.90;75.90;;;;;;2244854;56;20973;-71
2021/09/22 10:14:44;;;;;;;8.25;6.72;;;19.00;76.10;;;;;;2253585;55;21134;-72
2021/09/22 10:17:11;;;;;;;7.53;5.80;;;19.10;76.20;;;;;;2254183;56;21014;-71
2021/09/22 10:19:37;;;;;;;7.60;5.97;;;19.20;76.20;;;;;;2250726;55;21576;-72
2021/09/22 10:22:04;;;;;;;8.43;5.37;;;19.30;75.90;;;;;;2259880;56;20990;-72
2021/09/22 10:24:31;;;;;;;8.38;5.87;;;19.40;75.90;;;;;;2269701;55;20975;-78
2021/09/22 10:26:57;;;;;;;7.55;6.07;;;19.50;75.80;;;;;;2251423;55;21417;-72
2021/09/22 10:29:28;;;;;;;8.25;6.07;;;19.60;75.70;;;;;;2259903;56;20961;-71
2021/09/22 10:31:57;;;;;;;7.18;5.57;;;19.80;75.40;;;;;;2259259;56;21341;-71
2021/09/22 10:34:28;;;;;;;7.53;6.18;;;19.80;74.90;;;;;;2259094;56;21010;-72
2021/09/22 10:36:55;;;;;;;7.10;5.72;;;20.00;74.70;;;;;;2257239;55;21042;-72
2021/09/22 10:39:41;;;;;;;6.47;5.12;;;20.00;75.20;;;;;;2259088;55;20958;-72
2021/09/22 10:42:30;;;;;;;7.97;5.53;;;20.10;73.50;;;;;;2250201;55;21093;-73
2021/09/22 10:45:13;;;;;;;6.53;5.12;;;20.30;73.30;;;;;;2282622;55;21508;-75
2021/09/22 10:47:39;;;;;;;7.35;5.40;;;20.40;72.90;;;;;;2257696;55;21041;-75
2021/09/22 10:50:07;;;;;;;7.20;5.90;;;20.50;74.60;;;;;;2255264;55;20987;-73
2021/09/22 10:52:37;;;;;;;6.47;5.35;;;20.60;74.20;;;;;;2254372;56;20988;-78
2021/09/22 10:55:08;;;;;;;7.37;5.93;;;20.60;73.80;;;;;;2238041;56;1402745;-74
2021/09/22 10:57:35;;;;;;;8.27;6.00;;;20.70;73.00;;;;;;2261149;56;22096;-74
2021/09/22 11:00:21;;;;;;;7.65;6.10;;;20.80;73.30;;;;;;2259508;55;20994;-74
2021/09/22 11:02:54;;;;;;;6.18;4.85;;;20.80;71.60;;;;;;2264149;56;22044;-74
2021/09/22 11:05:53;;;;;;;6.47;5.20;;;20.90;72.30;;;;;;2248397;55;22079;-73
2021/09/22 11:08:32;;;;;;;8.13;5.35;;;21.00;71.60;;;;;;2236761;56;20968;-72
2021/09/22 11:10:59;;;;;;;7.07;5.12;;;21.00;72.20;;;;;;2262568;56;21496;-75
2021/09/22 11:13:34;;;;;;;7.30;5.00;;;21.10;72.80;;;;;;2400644;55;20970;-73
2021/09/22 11:16:14;;;;;;;7.50;5.93;;;21.20;71.80;;;;;;2263631;56;20993;-74
2021/09/22 11:18:50;;;;;;;7.20;4.75;;;21.30;71.60;;;;;;2270702;56;20970;-75
2021/09/22 11:21:21;;;;;;;8.07;4.62;;;21.30;71.10;;;;;;2248107;56;21390;-73
2021/09/22 11:23:47;;;;;;;7.00;5.17;;;21.40;71.70;;;;;;2288665;56;21405;-73
2021/09/22 11:26:14;;;;;;;6.00;4.78;;;21.50;72.10;;;;;;2268755;55;21389;-72
2021/09/22 11:28:48;;;;;;;5.90;4.70;;;21.50;71.70;;;;;;2269254;55;20957;-76
2021/09/22 11:31:14;;;;;;;6.75;4.78;;;21.60;70.30;;;;;;2271331;55;21070;-73
2021/09/22 11:33:40;;;;;;;6.97;4.75;;;21.60;71.20;;;;;;2397400;55;20974;-76
2021/09/22 11:36:07;;;;;;;6.03;4.87;;;21.60;71.10;;;;;;2269691;55;20974;-72
2021/09/22 11:38:34;;;;;;;6.25;5.03;;;21.70;70.70;;;;;;2266806;55;20994;-73
2021/09/22 11:41:00;;;;;;;7.07;5.20;;;21.70;70.80;;;;;;2265100;55;20981;-76
2021/09/22 11:43:27;;;;;;;6.45;4.95;;;21.70;70.80;;;;;;2268268;55;20962;-73
2021/09/22 11:45:58;;;;;;;6.78;5.05;;;21.70;70.60;;;;;;2398549;55;20950;-74
2021/09/22 11:48:37;;;;;;;5.68;4.22;;;21.80;70.60;;;;;;2280866;55;20998;-73
2021/09/22 11:51:07;;;;;;;7.15;4.70;;;21.80;69.00;;;;;;2273154;55;20983;-73
2021/09/22 11:53:33;;;;;;;7.00;5.18;;;21.90;70.50;;;;;;2281065;55;21033;-74
2021/09/22 11:56:00;;;;;;;7.57;5.00;;;21.90;71.00;;;;;;2262902;55;20969;-73
2021/09/22 11:58:28;;;;;;;6.62;5.15;;;21.90;69.90;;;;;;2397462;55;20994;-76
2021/09/22 12:00:56;;;;;;;7.55;4.70;;;21.90;69.60;;;;;;2271119;56;20953;-73
2021/09/22 12:03:24;;;;;;;7.53;4.72;;;21.90;69.30;;;;;;2244516;56;20967;-73
2021/09/22 12:06:15;;;;;;;6.22;5.10;;;21.90;69.20;;;;;;2268814;55;20966;-73
2021/09/22 12:08:43;;;;;;;6.10;4.60;;;22.00;67.10;;;;;;2300615;55;21018;-73
2021/09/22 12:11:13;;;;;;;7.15;4.87;;;22.00;69.50;;;;;;2314978;55;21005;-75
2021/09/22 12:13:41;;;;;;;6.43;4.82;;;22.00;69.60;;;;;;2263678;55;20993;-73
2021/09/22 12:16:07;;;;;;;6.72;5.32;;;22.00;69.20;;;;;;2265623;55;20990;-75
2021/09/22 12:18:49;;;;;;;6.55;4.85;;;22.00;69.50;;;;;;2266915;55;21025;-73
2021/09/22 12:21:15;;;;;;;6.53;5.10;;;22.10;67.80;;;;;;2266272;55;20974;-73
2021/09/22 12:23:42;;;;;;;5.62;4.32;;;22.20;70.70;;;;;;2266144;55;21007;-73
2021/09/22 12:26:13;;;;;;;6.25;4.95;;;22.20;70.00;;;;;;2266974;55;21586;-73
2021/09/22 12:28:40;;;;;;;6.55;4.95;;;22.30;69.30;;;;;;2289352;55;21029;-75
2021/09/22 12:31:28;;;;;;;6.47;4.70;;;22.30;69.60;;;;;;2269438;55;21615;-74
2021/09/22 12:33:58;;;;;;;5.62;4.37;;;22.40;67.70;;;;;;2257355;55;21300;-73
2021/09/22 12:36:24;;;;;;;5.45;4.25;;;22.50;69.10;;;;;;2368776;55;21140;-73
2021/09/22 12:38:53;;;;;;;5.75;4.20;;;22.50;69.70;;;;;;2321891;55;21017;-72
2021/09/22 12:41:20;;;;;;;6.68;4.45;;;22.60;69.40;;;;;;2366440;55;20994;-73
2021/09/22 12:43:47;;;;;;;5.37;4.35;;;22.70;69.20;;;;;;2365382;55;20970;-77
2021/09/22 12:46:17;;;;;;;6.85;4.53;;;22.70;68.70;;;;;;2268966;55;21013;-77
2021/09/22 12:48:43;;;;;;;6.12;4.40;;;22.70;68.30;;;;;;2341694;55;20977;-78
2021/09/22 12:51:20;;;;;;;5.97;4.47;;;22.80;68.30;;;;;;2420970;55;20982;-72